Time;durP1;ratioP1;P1;durP2;ratioP2;P2;SDS_P1;SDS_P2;PMS_P1;PMS_P2;Temp;Humidity;BMP_temperature;BMP_pressure;BME280_temperature;BME280_humidity;BME280_pressure;Samples;Min_cycle;Max_cycle;Signal;HPM_P1;HPM_P2
2021/05/24 09:54:35;;;;;;;2.87;2.57;;;12.00;70.30;;;;;;6282825;22;842645;-83
2021/05/24 09:57:05;;;;;;;4.50;2.80;;;13.80;66.40;;;;;;6314645;22;20007;-83
2021/05/24 09:59:34;;;;;;;3.97;2.83;;;13.80;66.40;;;;;;6312518;22;19999;-83
2021/05/24 10:02:02;;;;;;;4.40;3.00;;;13.80;66.30;;;;;;6286069;22;20003;-83
2021/05/24 10:04:30;;;;;;;3.47;2.00;;;13.80;66.20;;;;;;6287358;22;20082;-83
2021/05/24 10:06:57;;;;;;;7.67;2.53;;;13.80;66.00;;;;;;6314547;22;20074;-83
2021/05/24 10:09:24;;;;;;;2.93;2.13;;;13.90;66.50;;;;;;6314405;22;20309;-83
2021/05/24 10:11:52;;;;;;;2.80;2.00;;;13.90;65.50;;;;;;6285761;22;20003;-83
2021/05/24 10:14:23;;;;;;;4.10;2.63;;;13.90;65.20;;;;;;6286181;22;20003;-83
2021/05/24 10:16:52;;;;;;;6.80;2.50;;;13.90;64.80;;;;;;6287516;22;20090;-83
2021/05/24 10:19:20;;;;;;;5.70;2.73;;;14.00;64.50;;;;;;6287426;22;20007;-83
2021/05/24 10:21:48;;;;;;;10.03;2.57;;;14.00;64.40;;;;;;6287041;22;20049;-83
2021/05/24 10:24:15;;;;;;;5.93;2.70;;;14.00;64.60;;;;;;6286393;22;19999;-83
2021/05/24 10:26:44;;;;;;;4.90;2.57;;;14.10;63.90;;;;;;6313470;22;20002;-83
2021/05/24 10:29:11;;;;;;;4.83;3.00;;;14.20;63.60;;;;;;6286418;22;20093;-83
2021/05/24 10:31:38;;;;;;;7.57;2.53;;;14.30;63.50;;;;;;6314716;22;20062;-83
2021/05/24 10:34:24;;;;;;;3.83;2.10;;;14.30;63.40;;;;;;6285900;22;20011;-83
2021/05/24 10:37:20;;;;;;;4.60;2.80;;;14.40;63.50;;;;;;6286609;22;20079;-83
2021/05/24 10:39:46;;;;;;;3.97;2.60;;;14.50;63.40;;;;;;6314162;22;19999;-83
2021/05/24 10:42:13;;;;;;;5.50;2.70;;;14.60;63.50;;;;;;6313603;22;20014;-83
2021/05/24 10:44:43;;;;;;;5.93;2.70;;;14.70;63.40;;;;;;6314129;22;19995;-83
2021/05/24 10:47:24;;;;;;;4.63;3.10;;;14.80;63.20;;;;;;6286437;22;20042;-83
2021/05/24 10:50:04;;;;;;;5.60;3.47;;;14.80;63.00;;;;;;6286252;22;19999;-83
2021/05/24 10:52:35;;;;;;;5.07;3.20;;;14.90;62.90;;;;;;6286430;22;20525;-83
2021/05/24 10:55:27;;;;;;;11.98;3.35;;;14.80;62.70;;;;;;6280390;22;20008;-83
2021/05/24 10:57:57;;;;;;;4.93;2.20;;;14.90;62.60;;;;;;6278244;22;20053;-83
2021/05/24 11:00:23;;;;;;;5.60;2.53;;;14.80;62.70;;;;;;6306891;22;20034;-83
2021/05/24 11:02:54;;;;;;;4.17;3.07;;;14.80;62.70;;;;;;6279548;22;20061;-83
2021/05/24 11:05:29;;;;;;;8.60;3.63;;;14.80;62.60;;;;;;6307518;22;19999;-84
2021/05/24 11:07:57;;;;;;;3.73;2.70;;;14.90;62.70;;;;;;6306392;22;19999;-84
2021/05/24 11:10:53;;;;;;;5.23;2.50;;;14.90;62.60;;;;;;6279350;22;20006;-84
2021/05/24 11:13:21;;;;;;;4.40;2.80;;;15.00;62.50;;;;;;6248181;22;20383;-84
2021/05/24 11:15:48;;;;;;;4.75;3.15;;;15.00;62.40;;;;;;6279656;22;20014;-84
2021/05/24 11:18:18;;;;;;;5.10;2.90;;;15.10;62.40;;;;;;6281738;22;20048;-83
2021/05/24 11:20:59;;;;;;;4.97;3.40;;;15.10;62.30;;;;;;6307821;22;20003;-84
2021/05/24 11:26:20;;;;;;;4.33;3.03;;;15.00;62.30;;;;;;6317059;22;20048;-83
2021/05/24 11:28:58;;;;;;;6.27;3.57;;;15.10;62.50;;;;;;6278281;22;20007;-84
2021/05/24 11:31:32;;;;;;;3.47;2.50;;;15.10;62.70;;;;;;6306395;22;20061;-84
2021/05/24 11:33:58;;;;;;;5.95;3.08;;;15.10;62.80;;;;;;6278909;22;20003;-84
2021/05/24 11:36:37;;;;;;;3.90;3.13;;;15.00;62.70;;;;;;6278874;22;20011;-84
2021/05/24 11:39:06;;;;;;;4.60;2.63;;;15.10;62.90;;;;;;6306198;22;20031;-84
2021/05/24 11:41:35;;;;;;;7.27;3.20;;;15.10;63.30;;;;;;6278936;22;20007;-84
2021/05/24 11:44:03;;;;;;;7.68;2.88;;;15.10;62.60;;;;;;6306267;22;20023;-85
2021/05/24 11:46:44;;;;;;;7.30;3.53;;;15.20;62.80;;;;;;6254306;22;20090;-84
2021/05/24 11:49:11;;;;;;;6.53;3.03;;;15.30;63.00;;;;;;6279391;22;20455;-84
2021/05/24 11:51:37;;;;;;;5.13;2.58;;;15.40;62.70;;;;;;6306631;22;20379;-84
2021/05/24 11:54:06;;;;;;;6.63;2.78;;;15.50;62.30;;;;;;6274324;22;20016;-84
2021/05/24 11:56:53;;;;;;;3.72;2.40;;;15.60;62.20;;;;;;6274171;22;20138;-84
2021/05/24 11:59:21;;;;;;;5.15;3.25;;;15.70;62.10;;;;;;6274611;22;20000;-84
2021/05/24 12:01:49;;;;;;;4.03;3.08;;;15.80;62.10;;;;;;6273414;22;20287;-84
2021/05/24 12:04:27;;;;;;;5.22;2.60;;;15.80;62.30;;;;;;6273641;22;20008;-84
2021/05/24 12:07:03;;;;;;;4.53;2.92;;;15.90;62.20;;;;;;6273616;22;20031;-85
2021/05/24 12:09:41;;;;;;;4.68;3.13;;;15.90;62.30;;;;;;6273723;22;20010;-85
2021/05/24 12:12:11;;;;;;;4.38;3.17;;;16.00;62.60;;;;;;6273619;22;20584;-85
2021/05/24 12:14:39;;;;;;;6.63;3.33;;;16.00;62.60;;;;;;6273059;22;20153;-84
2021/05/24 12:17:07;;;;;;;4.68;2.92;;;16.00;62.70;;;;;;6272793;22;20015;-84
2021/05/24 12:19:33;;;;;;;10.80;4.75;;;16.10;62.50;;;;;;6275155;22;20004;-84
2021/05/24 12:22:03;;;;;;;7.00;3.80;;;16.10;62.40;;;;;;6273545;22;20038;-84
2021/05/24 12:24:29;;;;;;;5.45;3.60;;;16.20;62.30;;;;;;6273914;22;20049;-84
2021/05/24 12:26:56;;;;;;;4.05;3.30;;;16.20;62.10;;;;;;6275152;22;20372;-84
2021/05/24 12:29:25;;;;;;;5.20;3.10;;;16.30;62.00;;;;;;6273409;22;20002;-84
2021/05/24 12:31:54;;;;;;;4.07;3.10;;;16.30;61.70;;;;;;6273337;22;20397;-84
2021/05/24 12:34:25;;;;;;;6.35;2.70;;;16.40;61.60;;;;;;6272844;22;20053;-84
2021/05/24 12:36:56;;;;;;;5.68;3.10;;;16.40;61.40;;;;;;6273440;22;20007;-84
2021/05/24 12:39:26;;;;;;;3.53;2.80;;;16.50;61.30;;;;;;6272796;22;20004;-84
2021/05/24 12:41:55;;;;;;;5.65;3.08;;;16.60;60.80;;;;;;6272575;22;20099;-84
2021/05/24 12:44:26;;;;;;;8.05;3.22;;;16.70;60.40;;;;;;6272581;22;20015;-84
2021/05/24 12:46:56;;;;;;;4.70;3.03;;;16.80;59.80;;;;;;6272901;22;20489;-85
2021/05/24 12:49:36;;;;;;;4.65;2.97;;;16.90;59.40;;;;;;6273350;22;19996;-84
2021/05/24 12:52:06;;;;;;;4.32;2.65;;;17.00;59.10;;;;;;6273572;22;20054;-84
2021/05/24 12:54:51;;;;;;;4.82;2.92;;;17.10;59.00;;;;;;6272983;22;20410;-84
2021/05/24 12:57:29;;;;;;;5.55;2.55;;;17.10;58.60;;;;;;6273329;22;20042;-84
2021/05/24 12:59:56;;;;;;;5.47;2.53;;;17.10;58.60;;;;;;6273690;22;20007;-84
2021/05/24 13:02:30;;;;;;;3.60;2.35;;;17.20;58.80;;;;;;6274363;22;20079;-85
2021/05/24 13:05:18;;;;;;;4.68;2.30;;;17.30;58.60;;;;;;6275089;22;20006;-85
2021/05/24 13:07:56;;;;;;;4.65;2.53;;;17.40;58.10;;;;;;6272589;22;20096;-85
2021/05/24 13:10:37;;;;;;;7.68;3.88;;;17.40;57.70;;;;;;6272933;22;20042;-85
2021/05/24 13:13:22;;;;;;;8.48;3.05;;;17.50;57.70;;;;;;6274707;22;20076;-84
2021/05/24 13:16:01;;;;;;;9.82;3.05;;;17.50;57.40;;;;;;6272654;22;20007;-83
2021/05/24 13:31:36;;;;;;;3.55;2.80;;;18.00;57.10;;;;;;6284788;22;20053;-84
2021/05/24 13:34:03;;;;;;;5.13;2.92;;;17.90;56.40;;;;;;6273118;22;20007;-84
2021/05/24 13:36:31;;;;;;;4.38;2.63;;;18.00;56.20;;;;;;6272296;22;20021;-84
2021/05/24 13:39:05;;;;;;;6.75;3.90;;;17.90;56.20;;;;;;6272748;22;20034;-84
2021/05/24 13:41:38;;;;;;;8.75;5.07;;;17.90;56.40;;;;;;6274760;22;20003;-84
2021/05/24 13:44:07;;;;;;;6.03;3.38;;;17.90;56.30;;;;;;6272583;22;20007;-84
2021/05/24 13:46:33;;;;;;;5.75;3.35;;;17.90;56.10;;;;;;6272030;22;20000;-82
2021/05/24 13:48:58;;;;;;;4.57;2.47;;;17.90;56.10;;;;;;6272427;22;20000;-84
2021/05/24 13:51:26;;;;;;;3.65;1.60;;;18.00;56.10;;;;;;6272497;22;20035;-84
2021/05/24 13:53:53;;;;;;;4.20;2.70;;;18.00;55.90;;;;;;6272670;22;20019;-84
2021/05/24 13:56:20;;;;;;;3.65;2.20;;;18.00;55.60;;;;;;6272884;22;20011;-83
2021/05/24 13:58:46;;;;;;;5.82;2.67;;;18.00;55.80;;;;;;6274209;22;20031;-84
2021/05/24 14:01:12;;;;;;;8.30;4.55;;;18.10;55.90;;;;;;6271316;22;20004;-84
2021/05/24 14:03:38;;;;;;;8.68;4.43;;;18.30;56.10;;;;;;6271616;22;20375;-84
2021/05/24 14:06:05;;;;;;;8.05;4.15;;;18.30;55.90;;;;;;6271771;22;20384;-84
2021/05/24 14:08:31;;;;;;;7.40;5.50;;;18.40;55.70;;;;;;6271418;22;20030;-84
2021/05/24 14:10:56;;;;;;;9.98;3.35;;;18.30;55.60;;;;;;6272756;22;20417;-84
2021/05/24 14:13:22;;;;;;;4.25;3.50;;;18.20;55.60;;;;;;6272450;22;20633;-84
2021/05/24 14:15:48;;;;;;;6.70;5.00;;;18.20;55.80;;;;;;6272900;22;20014;-84
2021/05/24 14:18:15;;;;;;;8.70;5.47;;;18.10;55.80;;;;;;6272066;22;20042;-84
2021/05/24 14:20:41;;;;;;;4.43;3.20;;;18.20;56.10;;;;;;6272397;22;20007;-84
2021/05/24 14:23:07;;;;;;;6.22;3.40;;;18.20;56.50;;;;;;6272692;22;20003;-84
2021/05/24 14:25:33;;;;;;;4.63;3.53;;;18.20;57.10;;;;;;6272974;22;20114;-84
2021/05/24 14:27:59;;;;;;;9.60;3.90;;;18.30;57.20;;;;;;6272767;22;20019;-84
2021/05/24 14:30:28;;;;;;;6.13;3.90;;;18.30;56.90;;;;;;6275972;22;20100;-84
2021/05/24 14:33:02;;;;;;;5.13;3.20;;;18.40;56.80;;;;;;6275525;22;20007;-84
2021/05/24 14:35:31;;;;;;;4.60;3.15;;;18.40;56.50;;;;;;6275186;22;20014;-84
2021/05/24 14:37:57;;;;;;;5.32;2.70;;;18.40;56.10;;;;;;6276326;22;20008;-84
2021/05/24 14:40:23;;;;;;;7.88;2.55;;;18.40;55.70;;;;;;6274554;22;20008;-84
2021/05/24 14:42:49;;;;;;;3.75;2.47;;;18.30;55.40;;;;;;6276065;22;20003;-84
2021/05/24 14:45:14;;;;;;;4.82;3.10;;;18.30;55.90;;;;;;6274729;22;20345;-84
2021/05/24 14:47:40;;;;;;;3.47;2.70;;;18.20;55.30;;;;;;6274127;22;20387;-84
2021/05/24 14:50:09;;;;;;;4.65;2.80;;;18.20;55.30;;;;;;6274866;22;20041;-84
2021/05/24 14:52:36;;;;;;;5.43;2.15;;;18.10;55.20;;;;;;6278706;22;20897;-84
2021/05/24 14:55:03;;;;;;;3.58;2.00;;;18.10;55.10;;;;;;6279201;22;20010;-84
2021/05/24 14:57:29;;;;;;;6.70;2.30;;;18.10;55.10;;;;;;6279630;22;20582;-84
2021/05/24 15:03:18;;;;;;;2.28;1.10;;;18.10;55.60;;;;;;6307999;22;20022;-84
2021/05/24 15:05:44;;;;;;;2.63;1.17;;;18.00;55.20;;;;;;6280214;22;20006;-84
2021/05/24 15:08:09;;;;;;;2.58;1.15;;;18.00;55.10;;;;;;6306870;22;20329;-83
2021/05/24 15:10:36;;;;;;;4.40;1.10;;;17.90;54.00;;;;;;6279016;22;20007;-84
2021/05/24 15:13:02;;;;;;;2.88;0.98;;;17.90;53.30;;;;;;6278521;22;20072;-84
2021/05/24 15:15:28;;;;;;;5.13;1.20;;;17.90;53.30;;;;;;6279107;22;20003;-84
2021/05/24 15:17:54;;;;;;;3.00;1.10;;;17.80;53.40;;;;;;6279347;22;20003;-84
2021/05/24 15:20:23;;;;;;;8.55;1.40;;;17.80;53.70;;;;;;6279876;22;20011;-84
2021/05/24 15:22:51;;;;;;;6.85;1.60;;;17.80;54.10;;;;;;6278768;22;20003;-84
2021/05/24 15:25:18;;;;;;;2.75;1.50;;;17.70;54.50;;;;;;6307259;22;19999;-85
2021/05/24 15:27:46;;;;;;;3.83;1.75;;;17.70;54.80;;;;;;6279216;22;20083;-85
2021/05/24 15:30:15;;;;;;;8.38;2.22;;;17.60;55.10;;;;;;6279543;22;20006;-85
2021/05/24 15:32:41;;;;;;;3.28;2.28;;;17.60;55.40;;;;;;6279390;22;20027;-84
2021/05/24 15:35:08;;;;;;;4.85;1.80;;;17.60;55.50;;;;;;6306620;22;20090;-84
2021/05/24 15:37:34;;;;;;;3.25;1.20;;;17.60;55.20;;;;;;6306479;22;20034;-84
2021/05/24 15:40:00;;;;;;;1.95;1.10;;;17.60;55.10;;;;;;6279069;22;20010;-83
2021/05/24 15:42:26;;;;;;;4.03;1.05;;;17.50;55.00;;;;;;6278981;22;20007;-84
2021/05/24 15:44:52;;;;;;;2.85;1.33;;;17.50;54.80;;;;;;6279637;22;20322;-85
2021/05/24 15:47:17;;;;;;;7.90;2.58;;;17.50;54.70;;;;;;6305682;22;20092;-85
2021/05/24 15:49:44;;;;;;;5.28;1.83;;;17.50;55.20;;;;;;6306040;22;20003;-84
2021/05/24 15:52:10;;;;;;;6.85;3.45;;;17.50;55.70;;;;;;6306531;22;20362;-83
2021/05/24 15:54:36;;;;;;;4.30;2.65;;;17.50;56.30;;;;;;6277468;22;20015;-83
2021/05/24 15:57:03;;;;;;;2.47;1.80;;;17.50;57.20;;;;;;6277973;22;20007;-83
2021/05/24 15:59:29;;;;;;;4.07;2.38;;;17.40;57.70;;;;;;6305516;22;19999;-83
2021/05/24 16:01:54;;;;;;;5.57;2.25;;;17.40;58.50;;;;;;6278273;22;20080;-82
2021/05/24 16:04:20;;;;;;;4.50;2.03;;;17.40;59.40;;;;;;6280013;22;20006;-82
2021/05/24 16:06:46;;;;;;;4.53;2.33;;;17.40;59.80;;;;;;6280217;22;20472;-83
2021/05/24 16:09:12;;;;;;;5.65;2.15;;;17.40;60.00;;;;;;6280009;22;19999;-83
2021/05/24 16:11:39;;;;;;;4.85;2.38;;;17.40;59.70;;;;;;6305179;22;20049;-82
2021/05/24 16:14:05;;;;;;;3.38;2.13;;;17.40;59.70;;;;;;6305006;22;20022;-83
2021/05/24 16:16:33;;;;;;;7.30;2.83;;;17.30;60.00;;;;;;6278206;22;20020;-83
2021/05/24 16:18:59;;;;;;;5.85;2.67;;;17.30;60.80;;;;;;6278452;22;20280;-83
2021/05/24 16:21:25;;;;;;;5.00;2.75;;;17.30;61.40;;;;;;6278646;22;20038;-83
2021/05/24 16:26:19;;;;;;;6.32;2.90;;;17.20;62.10;;;;;;6305723;22;20463;-83
2021/05/24 16:28:45;;;;;;;9.23;3.20;;;17.20;61.90;;;;;;6306301;22;19995;-83
2021/05/24 16:31:12;;;;;;;4.72;3.10;;;17.20;62.10;;;;;;6278577;22;20022;-83
2021/05/24 16:33:38;;;;;;;5.53;2.15;;;17.30;62.70;;;;;;6305596;22;20007;-83
2021/05/24 16:36:05;;;;;;;4.10;3.20;;;17.20;63.00;;;;;;6306119;22;20007;-83
2021/05/24 16:38:31;;;;;;;5.57;2.72;;;17.20;63.40;;;;;;6278275;22;20516;-83
2021/05/24 16:40:57;;;;;;;4.45;2.40;;;17.20;63.80;;;;;;6278406;22;20401;-83
2021/05/24 16:43:24;;;;;;;4.35;2.72;;;17.10;64.10;;;;;;6305451;22;20003;-83
2021/05/24 16:45:50;;;;;;;4.68;2.33;;;17.10;64.70;;;;;;6304540;22;20329;-83
2021/05/24 16:48:18;;;;;;;4.57;2.45;;;17.10;65.00;;;;;;6278334;22;19999;-82
2021/05/24 16:50:45;;;;;;;3.67;2.17;;;17.00;65.30;;;;;;6278160;22;20006;-83
2021/05/24 16:53:12;;;;;;;3.45;1.90;;;17.00;65.70;;;;;;6272481;22;20019;-83
2021/05/24 16:55:38;;;;;;;7.80;2.33;;;17.00;65.90;;;;;;6272873;22;20004;-83
2021/05/24 16:58:05;;;;;;;3.80;2.22;;;17.00;66.20;;;;;;6273106;22;20015;-83
2021/05/24 17:00:31;;;;;;;3.25;2.90;;;17.00;66.60;;;;;;6272896;22;20007;-83
2021/05/24 17:02:57;;;;;;;5.45;2.30;;;17.00;66.70;;;;;;6272719;22;20322;-82
2021/05/24 17:05:23;;;;;;;5.93;2.75;;;17.00;66.80;;;;;;6273736;22;20030;-83
2021/05/24 17:07:50;;;;;;;5.65;2.72;;;17.00;67.10;;;;;;6273131;22;20008;-83
2021/05/24 17:10:19;;;;;;;5.43;2.65;;;16.90;67.10;;;;;;6273424;22;20321;-83
2021/05/24 17:12:45;;;;;;;10.50;6.10;;;17.00;67.30;;;;;;6272468;22;20502;-83
2021/05/24 17:15:13;;;;;;;8.55;4.03;;;16.90;67.40;;;;;;6272942;22;20015;-82
2021/05/24 17:17:40;;;;;;;10.32;5.32;;;16.90;67.60;;;;;;6273038;22;20322;-83
2021/05/24 17:20:09;;;;;;;6.70;4.57;;;16.90;67.60;;;;;;6274564;22;20007;-83
2021/05/24 17:22:36;;;;;;;7.32;4.00;;;16.80;68.00;;;;;;6272732;22;20337;-83
2021/05/24 17:25:04;;;;;;;5.72;3.05;;;16.80;68.50;;;;;;6275120;22;20041;-83
2021/05/24 17:27:34;;;;;;;10.45;4.82;;;16.70;68.60;;;;;;6272664;22;20023;-83
2021/05/24 17:30:00;;;;;;;6.60;3.80;;;16.70;69.00;;;;;;6273105;22;20035;-83
2021/05/24 17:32:26;;;;;;;4.25;2.65;;;16.60;69.30;;;;;;6273179;22;20004;-83
2021/05/24 17:34:51;;;;;;;6.00;2.78;;;16.60;69.80;;;;;;6275117;22;20012;-83
2021/05/24 17:37:17;;;;;;;8.52;2.65;;;16.50;70.00;;;;;;6274645;22;20437;-83
2021/05/24 17:39:44;;;;;;;4.00;2.35;;;16.50;70.50;;;;;;6273444;22;20012;-83
2021/05/24 17:42:10;;;;;;;2.60;1.55;;;16.40;70.30;;;;;;6272191;22;20471;-82
2021/05/24 17:44:36;;;;;;;2.70;0.90;;;16.30;70.80;;;;;;6272922;22;20003;-83
2021/05/24 17:47:01;;;;;;;4.97;1.00;;;16.20;69.50;;;;;;6274525;22;20000;-83
2021/05/24 17:49:27;;;;;;;1.08;0.77;;;16.20;69.70;;;;;;6272594;22;20006;-83
2021/05/24 17:51:53;;;;;;;2.28;0.50;;;16.10;69.90;;;;;;6273136;22;20031;-83
2021/05/24 17:54:19;;;;;;;4.43;0.60;;;16.00;69.20;;;;;;6301631;22;20019;-83
2021/05/24 17:56:45;;;;;;;1.05;0.70;;;16.00;69.00;;;;;;6277466;22;19995;-83
2021/05/24 17:59:11;;;;;;;4.60;1.58;;;16.00;69.20;;;;;;6278140;22;20026;-83
2021/05/24 18:01:37;;;;;;;0.73;0.50;;;16.00;69.80;;;;;;6277729;22;19999;-83
2021/05/24 18:04:05;;;;;;;1.17;0.50;;;15.90;70.30;;;;;;6278433;22;20118;-83
2021/05/24 18:06:31;;;;;;;1.10;0.80;;;15.80;70.40;;;;;;6280726;22;20009;-83
2021/05/24 18:08:57;;;;;;;1.77;1.13;;;15.80;70.70;;;;;;6307696;22;20021;-83
2021/05/24 18:44:41;;;;;;;3.93;2.13;;;15.40;72.60;;;;;;6245920;22;20020;-83
2021/05/24 18:47:07;;;;;;;2.10;0.87;;;15.40;72.50;;;;;;6219106;23;20007;-84
2021/05/24 18:49:33;;;;;;;1.63;0.90;;;15.40;72.00;;;;;;6218744;23;20008;-85
2021/05/24 18:51:59;;;;;;;3.30;1.43;;;15.30;71.80;;;;;;6219492;23;19996;-83
2021/05/24 18:54:25;;;;;;;2.63;0.80;;;15.30;72.10;;;;;;6220154;23;20103;-84
2021/05/24 18:56:51;;;;;;;2.90;0.83;;;15.20;72.00;;;;;;6219034;23;20004;-84
2021/05/24 18:59:17;;;;;;;2.60;0.50;;;15.20;72.00;;;;;;6246230;23;20453;-84
2021/05/24 19:01:42;;;;;;;3.97;1.10;;;15.20;72.00;;;;;;6219313;23;20000;-84
2021/05/24 19:04:31;;;;;;;1.73;1.23;;;15.20;72.10;;;;;;6219108;23;20027;-84
2021/05/24 19:06:55;;;;;;;3.10;0.80;;;15.10;72.10;;;;;;6246419;23;20030;-84
2021/05/24 19:09:21;;;;;;;1.20;0.60;;;15.10;72.20;;;;;;6219354;23;20004;-84
2021/05/24 19:11:47;;;;;;;4.40;1.97;;;15.00;72.20;;;;;;6219147;23;20027;-84
2021/05/24 19:14:21;;;;;;;3.87;0.43;;;15.00;71.90;;;;;;6218997;22;20004;-84
2021/05/24 19:16:46;;;;;;;0.50;0.40;;;15.00;71.90;;;;;;6219194;23;20028;-84
2021/05/24 19:19:12;;;;;;;1.57;0.67;;;14.90;72.00;;;;;;6218238;23;20058;-84
2021/05/24 19:21:39;;;;;;;2.83;0.60;;;14.90;72.20;;;;;;6218891;23;20434;-84
2021/05/24 19:24:05;;;;;;;2.83;0.50;;;14.90;72.50;;;;;;6218260;23;20004;-83
2021/05/24 19:26:33;;;;;;;0.90;0.50;;;14.90;72.60;;;;;;6218980;23;20011;-83
2021/05/24 19:29:05;;;;;;;4.13;0.70;;;14.80;72.80;;;;;;6218265;23;20000;-82
2021/05/24 19:31:45;;;;;;;1.87;0.40;;;14.80;72.90;;;;;;6242253;23;20057;-84
2021/05/24 19:34:11;;;;;;;6.87;3.70;;;14.80;73.00;;;;;;6218838;23;20086;-83
2021/05/24 19:36:40;;;;;;;4.50;3.90;;;14.80;73.10;;;;;;6218979;23;20008;-84
2021/05/24 19:39:06;;;;;;;2.37;1.90;;;14.80;73.30;;;;;;6219117;23;20083;-83
2021/05/24 19:41:32;;;;;;;2.00;1.10;;;14.80;73.20;;;;;;6242476;22;20456;-82
2021/05/24 19:43:58;;;;;;;4.40;1.53;;;14.70;73.10;;;;;;6214673;23;20009;-84
2021/05/24 19:46:26;;;;;;;4.97;1.90;;;14.70;73.40;;;;;;6188554;23;20005;-83
2021/05/24 20:24:30;;;;;;;4.27;1.60;;;14.50;74.30;;;;;;6123282;23;20065;-82
2021/05/24 20:26:56;;;;;;;5.50;0.90;;;14.50;74.10;;;;;;6164919;23;20020;-82
2021/05/24 20:29:22;;;;;;;5.80;1.23;;;14.50;74.10;;;;;;6171688;23;20338;-82
2021/05/24 20:31:48;;;;;;;1.80;0.80;;;14.40;74.10;;;;;;6215048;23;20005;-82
2021/05/24 20:34:14;;;;;;;1.30;0.40;;;14.30;73.90;;;;;;6187829;23;20005;-82
2021/05/24 20:36:40;;;;;;;2.20;0.50;;;14.30;73.80;;;;;;6188548;23;20012;-83
2021/05/24 20:39:09;;;;;;;1.27;0.50;;;14.30;73.70;;;;;;6188105;23;20005;-82
2021/05/24 20:41:35;;;;;;;3.77;1.53;;;14.30;73.90;;;;;;6214432;23;20001;-82
2021/05/24 20:44:01;;;;;;;3.17;0.90;;;14.30;74.10;;;;;;6187474;23;20027;-83
2021/05/24 20:46:27;;;;;;;1.30;0.97;;;14.30;74.20;;;;;;6214571;23;20072;-83
2021/05/24 20:48:53;;;;;;;5.57;0.87;;;14.20;74.20;;;;;;6187255;23;20454;-84
2021/05/24 20:51:21;;;;;;;1.60;0.73;;;14.20;74.50;;;;;;6187683;23;20008;-83
2021/05/24 20:53:47;;;;;;;2.77;0.90;;;14.30;74.30;;;;;;6187591;23;20036;-83
2021/05/24 20:56:13;;;;;;;3.57;0.50;;;14.30;74.30;;;;;;6187685;23;20008;-83
2021/05/24 20:58:41;;;;;;;1.73;0.40;;;14.20;73.80;;;;;;6188450;23;20442;-82
2021/05/24 21:01:07;;;;;;;0.57;0.40;;;14.20;73.20;;;;;;6187521;23;20503;-83
2021/05/24 21:03:34;;;;;;;1.20;0.40;;;14.20;73.00;;;;;;6187339;23;20009;-83
2021/05/24 21:06:00;;;;;;;0.73;0.50;;;14.10;73.00;;;;;;6187524;23;20004;-83
2021/05/24 21:08:26;;;;;;;2.37;0.50;;;14.10;73.10;;;;;;6187485;23;20343;-83
2021/05/24 21:10:53;;;;;;;2.40;0.70;;;14.00;73.20;;;;;;6188087;23;20398;-83
2021/05/24 21:13:19;;;;;;;1.70;0.90;;;14.00;73.40;;;;;;6214266;23;20606;-83
2021/05/24 21:15:45;;;;;;;3.20;1.10;;;14.10;73.40;;;;;;6187217;23;20008;-82
2021/05/24 21:18:11;;;;;;;3.83;1.00;;;14.10;73.20;;;;;;6187272;23;20043;-83
2021/05/24 21:20:39;;;;;;;3.77;0.70;;;14.00;73.10;;;;;;6186729;23;20004;-83
2021/05/24 21:23:05;;;;;;;6.37;1.00;;;14.00;73.20;;;;;;6214056;23;20001;-83
2021/05/24 21:25:31;;;;;;;1.13;0.50;;;14.00;73.20;;;;;;6187693;23;20012;-83
2021/05/24 21:27:57;;;;;;;0.90;0.80;;;14.00;73.00;;;;;;6187460;23;20004;-84
2021/05/24 21:30:23;;;;;;;0.53;0.43;;;14.00;72.80;;;;;;6188270;23;20058;-83
2021/05/24 21:35:27;;;;;;;1.00;0.50;;;14.00;72.80;;;;;;6214528;23;20312;-82
2021/05/24 21:37:54;;;;;;;1.13;0.57;;;14.00;72.80;;;;;;6214180;23;20522;-83
2021/05/24 21:40:20;;;;;;;0.70;0.37;;;13.90;72.90;;;;;;6187514;23;20004;-82
2021/05/24 21:42:46;;;;;;;5.50;0.60;;;13.80;73.10;;;;;;6187194;23;20446;-83
2021/05/24 21:45:14;;;;;;;1.00;0.57;;;13.80;73.40;;;;;;6186953;23;20005;-83
2021/05/24 21:47:39;;;;;;;1.07;0.50;;;13.70;73.60;;;;;;6187436;23;20027;-82
2021/05/24 21:50:06;;;;;;;1.47;0.60;;;13.70;73.70;;;;;;6186984;23;20000;-83
2021/05/24 21:52:36;;;;;;;2.20;0.40;;;13.70;73.80;;;;;;6187454;23;20004;-83
2021/05/24 21:55:04;;;;;;;1.67;0.70;;;13.70;73.90;;;;;;6188312;23;20009;-82
2021/05/24 21:57:31;;;;;;;1.77;0.60;;;13.70;74.10;;;;;;6213880;23;20144;-82
2021/05/24 21:59:56;;;;;;;2.00;0.50;;;13.70;73.90;;;;;;6187487;23;20011;-83
2021/05/24 22:02:22;;;;;;;1.33;0.50;;;13.70;73.80;;;;;;6187270;23;20005;-83
2021/05/24 22:04:48;;;;;;;2.57;0.50;;;13.70;73.40;;;;;;6214105;23;20032;-83
2021/05/24 22:07:14;;;;;;;1.13;0.47;;;13.70;73.40;;;;;;6187328;23;20013;-83
2021/05/24 22:09:40;;;;;;;0.90;0.50;;;13.70;73.50;;;;;;6187252;23;20000;-82
2021/05/24 22:12:06;;;;;;;4.03;1.00;;;13.70;73.70;;;;;;6187449;23;20001;-83
2021/05/24 22:14:32;;;;;;;1.17;0.60;;;13.70;73.90;;;;;;6187013;23;20028;-83
2021/05/24 22:16:58;;;;;;;0.90;0.70;;;13.70;74.00;;;;;;6187218;23;20000;-82
2021/05/24 22:19:24;;;;;;;4.30;1.10;;;13.70;74.10;;;;;;6187635;23;20015;-83
2021/05/24 22:21:54;;;;;;;2.73;0.80;;;13.70;74.30;;;;;;6187029;23;20001;-82
2021/05/24 22:24:23;;;;;;;1.70;0.70;;;13.70;74.20;;;;;;6186967;23;20004;-82
2021/05/24 22:26:48;;;;;;;1.13;0.50;;;13.70;74.40;;;;;;6187401;23;20419;-82
2021/05/24 22:29:14;;;;;;;4.03;1.70;;;13.70;74.40;;;;;;6186842;23;20036;-82
2021/05/24 22:31:40;;;;;;;1.43;0.70;;;13.70;74.40;;;;;;6188861;23;20346;-83
2021/05/24 22:34:06;;;;;;;1.63;0.90;;;13.70;74.50;;;;;;6187273;23;20080;-82
2021/05/24 22:36:32;;;;;;;1.23;0.60;;;13.70;74.50;;;;;;6187588;23;20031;-83
2021/05/24 22:38:58;;;;;;;2.67;0.70;;;13.70;74.40;;;;;;6187441;23;20455;-83
2021/05/24 22:41:26;;;;;;;1.10;0.90;;;13.70;74.30;;;;;;6187510;23;20036;-82
2021/05/24 22:43:52;;;;;;;1.20;0.80;;;13.70;74.30;;;;;;6188764;23;20000;-83
2021/05/24 22:46:17;;;;;;;3.80;0.80;;;13.70;74.40;;;;;;6187648;23;20122;-82
2021/05/24 22:48:43;;;;;;;1.43;0.93;;;13.60;74.50;;;;;;6187178;23;20450;-82
2021/05/24 22:51:10;;;;;;;1.67;0.70;;;13.60;74.80;;;;;;6188405;23;20011;-83
2021/05/24 22:53:36;;;;;;;2.93;0.87;;;13.60;74.90;;;;;;6189030;23;20004;-83
2021/05/24 22:56:02;;;;;;;2.10;0.63;;;13.50;75.60;;;;;;6189628;23;20082;-83
2021/05/24 22:58:27;;;;;;;2.40;1.77;;;13.50;75.20;;;;;;6188674;23;20438;-83
2021/05/24 23:00:53;;;;;;;1.90;1.20;;;13.50;75.20;;;;;;6189000;23;20008;-83
2021/05/24 23:03:19;;;;;;;2.00;0.80;;;13.50;75.20;;;;;;6188430;23;20043;-83
2021/05/24 23:05:46;;;;;;;1.00;0.83;;;13.40;75.20;;;;;;6215473;23;20016;-83
2021/05/24 23:08:12;;;;;;;1.20;1.00;;;13.50;75.20;;;;;;6189191;23;20054;-84
2021/05/24 23:10:37;;;;;;;4.47;1.10;;;13.50;75.20;;;;;;6189326;23;20084;-83
2021/05/24 23:13:04;;;;;;;2.13;1.30;;;13.50;75.30;;;;;;6189043;23;20315;-83
2021/05/24 23:15:29;;;;;;;1.70;1.07;;;13.40;75.40;;;;;;6189404;23;20449;-83
2021/05/24 23:17:55;;;;;;;0.93;0.80;;;13.40;75.50;;;;;;6215454;23;19997;-82
2021/05/24 23:20:22;;;;;;;2.00;0.67;;;13.50;75.40;;;;;;6188901;23;20385;-83
2021/05/24 23:22:48;;;;;;;1.13;0.50;;;13.50;75.20;;;;;;6189313;23;20040;-83
2021/05/24 23:25:14;;;;;;;3.00;0.70;;;13.50;74.90;;;;;;6189297;23;20059;-84
2021/05/24 23:27:40;;;;;;;1.60;0.70;;;13.50;74.80;;;;;;6188558;23;20056;-83
2021/05/24 23:30:09;;;;;;;2.57;0.77;;;13.50;74.70;;;;;;6188555;23;20055;-83
2021/05/24 23:32:35;;;;;;;0.63;0.53;;;13.50;74.70;;;;;;6188693;23;20072;-83
2021/05/24 23:35:01;;;;;;;1.43;0.50;;;13.50;74.60;;;;;;6188655;23;20457;-83
2021/05/24 23:37:27;;;;;;;0.80;0.70;;;13.40;74.60;;;;;;6188976;23;20012;-83
2021/05/24 23:39:52;;;;;;;2.40;0.60;;;13.40;74.70;;;;;;6189145;23;20434;-83
2021/05/24 23:42:18;;;;;;;1.03;0.50;;;13.50;74.60;;;;;;6188864;23;20498;-83
2021/05/24 23:44:44;;;;;;;8.57;1.83;;;13.50;74.50;;;;;;6188420;23;20012;-83
2021/05/24 23:47:09;;;;;;;2.07;1.00;;;13.40;74.50;;;;;;6189339;23;20005;-83
2021/05/24 23:49:35;;;;;;;3.87;1.30;;;13.40;74.90;;;;;;6188863;23;20004;-83
2021/05/24 23:52:01;;;;;;;2.77;1.40;;;13.40;75.00;;;;;;6189018;23;20083;-83
2021/05/24 23:54:27;;;;;;;2.13;1.20;;;13.40;75.20;;;;;;6215167;23;20001;-83
2021/05/24 23:56:53;;;;;;;1.70;1.20;;;13.40;75.40;;;;;;6188849;23;20442;-83
2021/05/24 23:59:19;;;;;;;1.30;1.20;;;13.40;75.50;;;;;;6188869;23;20504;-83
